Time;durP1;ratioP1;P1;durP2;ratioP2;P2;SDS_P1;SDS_P2;PMS_P1;PMS_P2;Temp;Humidity;BMP_temperature;BMP_pressure;BME280_temperature;BME280_humidity;BME280_pressure;Samples;Min_cycle;Max_cycle;Signal;HPM_P1;HPM_P2
2021/08/06 00:01:54;;;;;;;;;;;19.60;88.50;;;18.78;81.91;99315.53;4989844;28;19969;-88
2021/08/06 00:04:22;;;;;;;;;;;19.60;88.60;;;18.79;82.06;99312.50;4990001;28;19949;-90
2021/08/06 00:06:49;;;;;;;;;;;19.60;88.70;;;18.76;81.89;99307.53;4971505;28;20020;-89
2021/08/06 00:09:16;;;;;;;;;;;19.60;88.80;;;18.75;82.40;99312.22;4988509;28;19925;-89
2021/08/06 00:11:43;;;;;;;;;;;19.60;88.90;;;18.76;82.19;99313.03;4988458;28;19926;-89
2021/08/06 00:14:10;;;;;;;;;;;19.50;89.10;;;18.74;82.24;99313.28;4988485;28;19950;-89
2021/08/06 00:16:38;;;;;;;;;;;19.50;89.00;;;18.76;82.27;99308.34;4988878;28;19993;-89
2021/08/06 00:19:06;;;;;;;;;;;19.50;89.00;;;18.75;82.80;99303.94;4988408;28;20424;-90
2021/08/06 00:21:33;;;;;;;;;;;19.50;89.20;;;18.73;82.54;99303.38;4989877;28;20012;-90
2021/08/06 00:24:01;;;;;;;;;;;19.60;89.20;;;18.75;82.73;99305.84;4989803;28;19929;-90
2021/08/06 00:26:28;;;;;;;;;;;19.60;89.10;;;18.76;82.64;99304.75;4989248;28;19926;-89
2021/08/06 00:28:55;;;;;;;;;;;19.60;89.10;;;18.75;82.75;99309.47;4989847;28;19941;-90
2021/08/06 00:31:22;;;;;;;;;;;19.60;89.00;;;18.76;82.97;99313.03;4990140;28;19932;-89
2021/08/06 00:33:49;;;;;;;;;;;19.60;89.30;;;18.76;82.77;99308.34;4976052;28;19944;-90
2021/08/06 00:36:19;;;;;;;;;;;19.60;89.30;;;18.76;83.09;99305.59;4975180;28;19936;-88
2021/08/06 00:38:48;;;;;;;;;;;19.60;89.40;;;18.77;82.97;99303.66;4991984;28;20390;-89
2021/08/06 00:41:16;;;;;;;;;;;19.60;89.50;;;18.72;83.23;99296.19;4975643;28;19969;-91
2021/08/06 00:43:43;;;;;;;;;;;19.60;89.40;;;18.72;83.19;99296.19;4991418;28;19929;-89
2021/08/06 00:46:17;;;;;;;;;;;19.60;89.30;;;18.74;83.32;99291.25;4971606;28;20421;-89
2021/08/06 00:48:46;;;;;;;;;;;19.60;89.40;;;18.74;83.29;99287.66;4973761;28;19925;-90
2021/08/06 00:51:14;;;;;;;;;;;19.60;89.50;;;18.75;83.48;99289.31;4972173;28;20021;-89
2021/08/06 00:53:46;;;;;;;;;;;19.60;89.40;;;18.75;83.28;99281.03;4972223;28;19972;-90
2021/08/06 00:56:13;;;;;;;;;;;19.60;89.30;;;18.73;83.41;99275.81;4971579;28;19936;-90
2021/08/06 00:58:41;;;;;;;;;;;19.60;89.30;;;18.73;83.31;99281.34;4971859;28;19926;-90
2021/08/06 01:01:19;;;;;;;;;;;19.60;89.30;;;18.73;83.72;99281.34;4972068;28;19930;-89
2021/08/06 01:04:00;;;;;;;;;;;19.60;89.60;;;18.75;83.65;99284.66;4972268;28;19933;-89
2021/08/06 01:06:37;;;;;;;;;;;19.60;89.70;;;18.75;83.65;99281.03;4971153;28;19926;-88
2021/08/06 01:09:12;;;;;;;;;;;19.60;89.80;;;18.74;83.49;99277.47;4972016;28;19929;-90
2021/08/06 01:11:42;;;;;;;;;;;19.60;89.80;;;18.75;83.47;99278.28;4973260;28;19929;-89
2021/08/06 01:14:14;;;;;;;;;;;19.60;89.50;;;18.74;83.54;99263.69;4971833;28;19922;-90
2021/08/06 01:16:46;;;;;;;;;;;19.60;89.50;;;18.74;83.37;99277.47;4970796;28;20331;-90
2021/08/06 01:19:26;;;;;;;;;;;19.60;89.50;;;18.74;83.57;99265.63;4971740;28;19965;-89
2021/08/06 01:22:02;;;;;;;;;;;19.60;89.60;;;18.73;83.20;99274.97;4971670;28;20477;-89
2021/08/06 01:24:36;;;;;;;;;;;19.60;89.30;;;18.72;83.53;99263.13;4971642;28;20418;-89
2021/08/06 01:27:06;;;;;;;;;;;19.60;89.40;;;18.71;83.44;99266.16;4970744;28;20341;-89
2021/08/06 01:29:34;;;;;;;;;;;19.60;89.10;;;18.72;83.22;99260.38;4971883;28;20024;-89
2021/08/06 01:32:06;;;;;;;;;;;19.60;89.10;;;18.71;83.70;99264.22;4971836;28;19964;-88
2021/08/06 01:34:33;;;;;;;;;;;19.60;89.10;;;18.70;83.43;99270.84;4971699;28;19934;-90
2021/08/06 01:37:01;;;;;;;;;;;19.60;88.90;;;18.70;83.56;99259.81;4970857;28;19933;-89
2021/08/06 01:39:39;;;;;;;;;;;19.60;88.90;;;18.73;83.31;99267.56;4971710;28;19957;-89
2021/08/06 01:42:15;;;;;;;;;;;19.60;88.90;;;18.72;83.19;99257.63;4971326;28;19973;-89
2021/08/06 01:44:51;;;;;;;;;;;19.60;89.10;;;18.70;83.57;99259.00;4971469;28;19976;-89
2021/08/06 01:47:24;;;;;;;;;;;19.60;88.90;;;18.72;83.21;99259.56;4970658;28;19922;-88
2021/08/06 01:49:59;;;;;;;;;;;19.60;89.10;;;18.72;83.31;99254.84;4971253;28;20350;-90
2021/08/06 01:52:31;;;;;;;;;;;19.60;89.30;;;18.72;83.31;99248.53;4971340;28;19926;-89
2021/08/06 01:55:02;;;;;;;;;;;19.60;89.50;;;18.72;83.11;99248.53;4971434;28;19922;-89
2021/08/06 01:57:44;;;;;;;;;;;19.60;89.20;;;18.71;83.29;99249.59;4970664;28;19926;-89
2021/08/06 02:00:13;;;;;;;;;;;19.60;89.20;;;18.71;83.20;99244.91;4971453;28;20457;-89
2021/08/06 02:02:46;;;;;;;;;;;19.60;89.30;;;18.71;83.22;99239.41;4973163;28;19929;-90
2021/08/06 02:05:21;;;;;;;;;;;19.60;89.30;;;18.73;83.11;99241.91;4971297;28;19929;-89
2021/08/06 02:07:50;;;;;;;;;;;19.50;89.60;;;18.71;83.25;99233.91;4970398;28;20299;-90
2021/08/06 02:10:23;;;;;;;;;;;19.50;89.80;;;18.70;83.25;99237.75;4971126;28;20401;-89
2021/08/06 02:12:51;;;;;;;;;;;19.40;89.70;;;18.67;83.12;99237.47;4970870;28;19928;-90
2021/08/06 02:15:18;;;;;;;;;;;19.40;89.90;;;18.66;83.45;99238.59;4970800;28;19929;-89
2021/08/06 08:17:45;;;;;;;;;;;21.40;89.90;;;18.98;96.16;99243.94;6217969;23;19914;-91
2021/08/06 08:20:14;;;;;;;;;;;21.50;89.10;;;19.04;96.01;99240.13;4970104;28;19946;-86
2021/08/06 08:22:42;;;;;;;;;;;21.70;88.50;;;19.09;94.98;99237.34;4990020;28;19925;-87
2021/08/06 08:25:10;;;;;;;;;;;21.70;87.80;;;19.12;94.82;99233.25;4972472;28;19926;-86
2021/08/06 08:27:38;;;;;;;;;;;21.60;88.00;;;19.09;94.78;99228.25;4968409;28;19932;-87
2021/08/06 08:30:07;;;;;;;;;;;21.60;88.50;;;19.13;96.03;99230.22;4968942;28;19926;-87
2021/08/06 08:32:35;;;;;;;;;;;21.70;88.50;;;19.20;95.78;99221.66;4968998;28;19989;-86
2021/08/06 08:35:03;;;;;;;;;;;21.80;88.00;;;19.24;94.97;99227.47;4969110;28;19930;-86
2021/08/06 08:37:31;;;;;;;;;;;21.90;87.60;;;19.30;95.21;99226.34;4969496;28;19965;-87
2021/08/06 08:39:58;;;;;;;;;;;21.90;87.50;;;19.27;93.99;99227.75;4952970;28;19957;-87
2021/08/06 08:42:26;;;;;;;;;;;21.90;87.30;;;19.27;94.69;99235.19;4952793;28;19934;-86
2021/08/06 08:44:53;;;;;;;;;;;21.70;88.10;;;19.24;94.51;99252.28;4971345;28;19980;-86
2021/08/06 08:47:23;;;;;;;;;;;21.40;89.20;;;19.21;95.93;99241.78;4967951;28;19922;-87
2021/08/06 08:49:53;;;;;;;;;;;21.10;90.70;;;19.13;96.30;99244.00;4952839;28;19926;-86
2021/08/06 08:52:21;;;;;;;;;;;20.90;91.60;;;19.11;96.46;99251.72;4970453;28;19922;-86
2021/08/06 08:54:49;;;;;;;;;;;20.80;93.10;;;19.11;97.16;99248.97;4973764;28;19926;-86
2021/08/06 08:57:20;;;;;;;;;;;20.60;93.70;;;19.09;97.57;99251.13;4955542;28;19926;-87
2021/08/06 08:59:48;;;;;;;;;;;20.60;94.20;;;19.12;100.00;99250.59;4956314;28;19925;-87
2021/08/06 09:02:16;;;;;;;;;;;20.80;94.50;;;19.17;100.00;99257.22;4956149;28;19922;-87
2021/08/06 09:04:45;;;;;;;;;;;21.20;93.20;;;19.17;100.00;99258.06;4956169;28;20442;-87
2021/08/06 09:07:30;;;;;;;;;;;21.40;92.80;;;19.13;100.00;99254.19;4955120;28;19926;-87
2021/08/06 09:10:20;;;;;;;;;;;21.50;92.80;;;19.16;100.00;99261.09;4973182;28;20426;-87
2021/08/06 09:13:23;;;;;;;;;;;21.40;93.70;;;19.21;100.00;99263.84;4913365;29;19941;-87
2021/08/06 09:15:57;;;;;;;;;;;21.40;92.90;;;19.21;100.00;99258.34;4949034;28;20290;-86
2021/08/06 09:18:36;;;;;;;;;;;21.30;93.30;;;19.11;100.00;99265.50;4952419;29;20144;-86
2021/08/06 09:21:19;;;;;;;;;;;21.30;92.80;;;19.08;100.00;99260.53;4953796;28;19937;-86
2021/08/06 09:23:48;;;;;;;;;;;21.20;91.90;;;19.05;100.00;99266.56;4953999;28;19922;-86
2021/08/06 09:26:44;;;;;;;;;;;21.10;92.70;;;19.07;100.00;99269.88;4953073;28;19944;-87
2021/08/06 09:29:13;;;;;;;;;;;21.00;93.20;;;19.10;100.00;99274.06;4953870;28;20354;-89
2021/08/06 09:31:43;;;;;;;;;;;21.00;93.60;;;19.10;100.00;99277.63;4952565;28;19930;-89
2021/08/06 09:34:23;;;;;;;;;;;21.10;93.20;;;19.15;100.00;99282.31;4953675;28;20387;-89
2021/08/06 09:37:02;;;;;;;;;;;21.10;94.20;;;19.20;100.00;99287.84;4951667;29;19934;-87
2021/08/06 09:39:33;;;;;;;;;;;21.30;93.40;;;19.21;100.00;99283.16;4968292;28;19926;-88
2021/08/06 09:42:01;;;;;;;;;;;21.50;92.50;;;19.23;100.00;99284.56;4953599;28;20000;-86
2021/08/06 09:44:30;;;;;;;;;;;21.70;91.60;;;19.26;100.00;99284.00;4953484;28;19926;-87
2021/08/06 09:46:58;;;;;;;;;;;21.70;91.70;;;19.27;100.00;99284.84;4952587;28;20458;-86
2021/08/06 09:49:26;;;;;;;;;;;21.70;91.00;;;19.30;100.00;99284.28;4953323;28;19926;-87
2021/08/06 09:51:54;;;;;;;;;;;21.70;91.70;;;19.36;100.00;99280.44;4953316;28;19933;-87
2021/08/06 09:54:23;;;;;;;;;;;21.90;92.40;;;19.41;100.00;99280.44;4953384;28;20017;-87
2021/08/06 09:57:04;;;;;;;;;;;22.10;91.80;;;19.43;100.00;99278.25;4952604;28;19930;-87
2021/08/06 09:59:33;;;;;;;;;;;22.20;90.90;;;19.45;100.00;99277.97;4953161;28;20335;-87
2021/08/06 10:02:15;;;;;;;;;;;22.20;90.00;;;19.42;100.00;99278.50;4953243;28;19941;-87
2021/08/06 10:04:45;;;;;;;;;;;22.20;89.90;;;19.47;100.00;99273.84;4953230;28;20379;-87
2021/08/06 10:07:15;;;;;;;;;;;22.20;89.10;;;19.42;100.00;99275.75;4952314;28;20020;-87
2021/08/06 10:09:42;;;;;;;;;;;22.10;89.50;;;19.45;100.00;99265.00;4953196;28;20743;-87
2021/08/06 10:12:10;;;;;;;;;;;22.10;89.70;;;19.48;99.85;99269.97;4952897;28;19926;-86
2021/08/06 10:14:38;;;;;;;;;;;22.10;88.70;;;19.54;100.00;99268.06;4953056;28;20025;-87
2021/08/06 10:17:05;;;;;;;;;;;22.10;89.60;;;19.56;98.79;99259.50;4952194;28;19970;-87
2021/08/06 10:19:32;;;;;;;;;;;22.20;88.50;;;19.57;99.02;99267.50;4968910;28;20014;-87
2021/08/06 10:22:00;;;;;;;;;;;22.20;88.40;;;19.58;98.08;99276.63;4972086;28;20386;-87
2021/08/06 10:24:27;;;;;;;;;;;22.10;88.30;;;19.60;97.90;99271.66;4972013;28;19929;-86
2021/08/06 10:26:54;;;;;;;;;;;22.10;88.60;;;19.60;97.45;99277.16;4971480;28;19933;-83
2021/08/06 10:29:23;;;;;;;;;;;22.10;89.00;;;19.62;97.74;99277.72;4972075;28;20372;-87
2021/08/06 10:32:15;;;;;;;;;;;22.00;88.70;;;19.66;98.65;99276.06;4972037;28;19997;-87
2021/08/06 10:35:18;;;;;;;;;;;22.10;89.70;;;19.66;99.98;99281.59;4971991;28;19926;-87
2021/08/06 10:38:06;;;;;;;;;;;22.10;89.90;;;19.67;98.71;99283.25;4970891;28;19926;-85
2021/08/06 10:41:17;;;;;;;;;;;22.10;89.70;;;19.70;100.00;99279.94;4971825;28;20394;-87
2021/08/06 10:44:12;;;;;;;;;;;22.30;89.30;;;19.69;99.64;99272.75;4987495;28;19922;-91
2021/08/06 10:46:54;;;;;;;;;;;22.30;88.70;;;19.75;99.44;99287.44;4971013;28;19981;-88
2021/08/06 10:49:21;;;;;;;;;;;22.50;88.70;;;19.80;100.00;99281.88;4972331;28;20012;-87
2021/08/06 10:51:49;;;;;;;;;;;22.50;88.70;;;19.83;100.00;99275.81;4971879;28;19934;-87
2021/08/06 10:54:37;;;;;;;;;;;22.60;88.70;;;19.84;98.20;99274.75;4971548;28;20017;-87
2021/08/06 10:57:26;;;;;;;;;;;22.60;87.70;;;19.86;96.82;99270.59;4970813;28;20036;-88
2021/08/06 10:59:54;;;;;;;;;;;22.60;87.10;;;19.90;96.32;99271.69;4985995;28;19925;-88
2021/08/06 11:02:40;;;;;;;;;;;22.70;86.90;;;19.96;97.22;99275.28;4971396;28;20024;-87
2021/08/06 11:05:30;;;;;;;;;;;22.80;86.90;;;20.04;98.54;99273.88;4970117;28;19926;-88
2021/08/06 11:07:59;;;;;;;;;;;23.00;86.90;;;20.07;96.19;99281.63;4969065;28;20343;-87
2021/08/06 11:10:47;;;;;;;;;;;23.00;85.70;;;20.05;96.88;99272.78;4969841;28;20410;-87
2021/08/06 11:13:54;;;;;;;;;;;22.90;86.40;;;20.04;96.89;99271.13;4971285;28;20017;-88
2021/08/06 11:16:22;;;;;;;;;;;22.90;87.20;;;19.97;95.26;99288.00;4970103;28;20626;-88
2021/08/06 11:18:50;;;;;;;;;;;22.80;86.00;;;19.98;96.17;99284.09;4970971;28;19926;-87
2021/08/06 11:21:22;;;;;;;;;;;22.70;87.00;;;19.97;96.46;99293.50;4969745;28;19922;-87
2021/08/06 11:23:57;;;;;;;;;;;22.50;87.60;;;19.96;95.82;99289.06;4971259;28;20461;-87
2021/08/06 11:26:25;;;;;;;;;;;22.30;87.80;;;19.92;95.04;99297.09;4968929;28;19964;-87
2021/08/06 11:28:56;;;;;;;;;;;22.00;88.20;;;19.88;95.37;99301.50;4985654;28;20382;-87
2021/08/06 11:31:23;;;;;;;;;;;21.80;89.20;;;19.83;95.16;99292.41;4969571;28;19922;-87
2021/08/06 11:34:00;;;;;;;;;;;21.60;89.60;;;19.77;95.00;99310.06;4971155;28;19973;-88
2021/08/06 11:36:27;;;;;;;;;;;21.50;90.20;;;19.71;95.52;99306.44;4970306;28;20334;-88
2021/08/06 11:39:01;;;;;;;;;;;21.30;91.40;;;19.68;96.51;99301.47;4970910;28;19932;-87
2021/08/06 11:41:29;;;;;;;;;;;21.20;92.30;;;19.64;97.01;99305.88;4970800;28;19926;-88
2021/08/06 11:43:57;;;;;;;;;;;21.20;92.70;;;19.65;97.29;99307.56;4970921;28;19945;-88
2021/08/06 11:46:24;;;;;;;;;;;21.30;92.60;;;19.66;99.41;99295.38;4984604;28;19980;-87
2021/08/06 11:48:53;;;;;;;;;;;21.50;93.10;;;19.67;100.00;99299.81;4970929;28;19969;-87
2021/08/06 11:51:21;;;;;;;;;;;21.50;93.70;;;19.68;100.00;99296.75;4970587;28;19980;-87
2021/08/06 11:53:48;;;;;;;;;;;21.70;93.00;;;19.71;100.00;99300.91;4970564;28;19929;-87
2021/08/06 11:56:17;;;;;;;;;;;21.90;92.70;;;19.76;100.00;99287.13;4968603;28;20386;-87
2021/08/06 11:58:46;;;;;;;;;;;22.10;92.20;;;19.84;100.00;99283.84;4969235;28;19925;-87
2021/08/06 12:01:18;;;;;;;;;;;22.30;91.70;;;19.89;100.00;99285.75;4970702;28;20008;-87
2021/08/06 12:03:46;;;;;;;;;;;22.40;91.30;;;19.87;100.00;99299.84;4970892;28;20013;-88
2021/08/06 12:06:16;;;;;;;;;;;22.40;90.80;;;19.88;100.00;99292.41;4970105;28;20642;-87
2021/08/06 12:08:45;;;;;;;;;;;22.40;90.80;;;19.90;100.00;99293.78;4970596;28;19929;-88
2021/08/06 12:11:15;;;;;;;;;;;22.40;90.90;;;19.91;100.00;99284.41;4970638;28;20402;-88
2021/08/06 12:13:48;;;;;;;;;;;22.30;91.00;;;19.96;100.00;99291.03;4970644;28;19930;-87
2021/08/06 12:16:18;;;;;;;;;;;22.30;91.60;;;19.99;100.00;99284.94;4969902;28;19926;-88
2021/08/06 12:18:49;;;;;;;;;;;22.40;91.20;;;19.96;100.00;99285.50;4968987;28;19925;-89
2021/08/06 12:21:18;;;;;;;;;;;22.30;91.00;;;19.96;100.00;99274.44;4970526;28;20002;-89
2021/08/06 12:23:49;;;;;;;;;;;22.30;91.30;;;19.99;100.00;99273.88;4970482;28;20387;-88
2021/08/06 12:26:19;;;;;;;;;;;22.40;91.20;;;20.02;100.00;99273.34;4971660;28;20036;-88
2021/08/06 12:28:48;;;;;;;;;;;22.40;90.90;;;20.03;99.37;99269.44;4974136;28;19973;-87
2021/08/06 12:31:24;;;;;;;;;;;22.30;90.40;;;20.07;100.00;99265.06;4972789;28;20529;-88
2021/08/06 12:34:05;;;;;;;;;;;22.30;91.60;;;20.05;98.08;99261.75;4974150;28;19981;-88
2021/08/06 12:36:33;;;;;;;;;;;22.30;91.30;;;20.03;98.22;99263.94;4988389;28;20670;-88
2021/08/06 12:39:08;;;;;;;;;;;22.20;91.00;;;20.02;99.62;99252.06;4974135;28;19929;-87
2021/08/06 12:41:36;;;;;;;;;;;22.20;90.80;;;20.03;98.63;99252.88;4972765;28;19985;-87
2021/08/06 12:44:26;;;;;;;;;;;22.20;90.70;;;20.03;97.43;99247.34;4972630;28;20016;-87
2021/08/06 12:47:06;;;;;;;;;;;22.20;89.80;;;19.97;98.68;99254.00;4972910;28;19922;-87
2021/08/06 12:49:35;;;;;;;;;;;22.10;90.00;;;19.99;97.08;99246.25;4974065;28;19921;-88
2021/08/06 12:52:05;;;;;;;;;;;22.20;89.80;;;20.05;96.93;99253.47;4972597;28;19933;-88
2021/08/06 12:54:38;;;;;;;;;;;22.40;89.00;;;20.08;96.00;99256.47;4988820;28;19930;-88
2021/08/06 12:57:10;;;;;;;;;;;22.60;87.90;;;20.11;92.28;99257.84;4973088;28;19926;-87
2021/08/06 12:59:39;;;;;;;;;;;22.60;86.10;;;20.13;93.97;99252.88;4973787;28;20008;-87
2021/08/06 13:02:14;;;;;;;;;;;22.60;86.80;;;20.16;93.13;99262.53;4973654;28;19922;-87
2021/08/06 13:04:42;;;;;;;;;;;22.60;86.60;;;20.15;90.89;99264.47;4973795;28;20371;-87
2021/08/06 13:07:22;;;;;;;;;;;22.50;86.90;;;20.11;89.82;99258.69;4971422;28;20019;-88
2021/08/06 13:09:51;;;;;;;;;;;22.40;86.50;;;20.12;90.95;99256.72;4973683;28;19925;-88
2021/08/06 13:12:18;;;;;;;;;;;22.40;86.50;;;20.12;90.89;99253.97;4973335;28;20032;-88
2021/08/06 13:14:47;;;;;;;;;;;22.50;85.80;;;20.15;89.63;99260.91;4972112;28;20001;-88
2021/08/06 13:17:16;;;;;;;;;;;22.60;85.30;;;20.17;89.18;99253.16;4972531;28;19958;-89
2021/08/06 13:19:43;;;;;;;;;;;22.50;84.90;;;20.21;88.02;99259.78;4988260;28;20371;-88
2021/08/06 13:22:13;;;;;;;;;;;22.50;84.70;;;20.24;87.71;99260.03;4971865;28;20012;-88
2021/08/06 13:24:41;;;;;;;;;;;22.50;84.50;;;20.23;87.10;99260.31;4973244;28;19926;-88
2021/08/06 13:27:09;;;;;;;;;;;22.50;84.60;;;20.27;87.52;99264.19;4972454;28;19965;-88
2021/08/06 13:29:37;;;;;;;;;;;22.50;84.00;;;20.27;85.68;99261.41;4971720;28;19969;-87
2021/08/06 13:32:05;;;;;;;;;;;22.60;83.00;;;20.21;84.97;99271.66;4987763;28;19969;-88
2021/08/06 13:34:33;;;;;;;;;;;22.60;83.00;;;20.22;87.29;99278.00;4972034;28;19925;-88
2021/08/06 13:37:00;;;;;;;;;;;22.60;83.00;;;20.21;85.19;99277.16;4972330;28;19964;-88
2021/08/06 13:39:27;;;;;;;;;;;22.70;82.70;;;20.22;84.96;99278.84;4972738;28;20386;-89
2021/08/06 13:41:54;;;;;;;;;;;22.70;82.00;;;20.24;83.66;99276.63;4972985;28;20365;-89
2021/08/06 13:44:23;;;;;;;;;;;22.80;81.00;;;20.29;85.33;99284.06;4971500;28;19977;-87
2021/08/06 13:46:50;;;;;;;;;;;22.90;81.20;;;20.33;84.26;99281.56;4972172;28;19993;-88
2021/08/06 13:49:17;;;;;;;;;;;23.00;80.60;;;20.37;82.69;99286.28;4972854;28;20009;-88
2021/08/06 13:51:44;;;;;;;;;;;23.00;79.50;;;20.36;82.47;99278.25;4972712;28;19926;-88
2021/08/06 13:54:11;;;;;;;;;;;23.00;79.30;;;20.36;83.49;99283.78;4972807;28;19925;-88
2021/08/06 13:56:38;;;;;;;;;;;23.00;79.80;;;20.42;83.50;99282.66;4986686;28;19926;-89
2021/08/06 13:59:06;;;;;;;;;;;23.00;80.20;;;20.39;79.66;99278.53;4972516;28;19973;-87
2021/08/06 14:01:35;;;;;;;;;;;22.90;78.90;;;20.35;82.11;99288.47;4972504;28;19930;-88
2021/08/06 14:04:03;;;;;;;;;;;22.80;79.70;;;20.35;82.24;99293.16;4971261;28;19926;-88
2021/08/06 14:06:32;;;;;;;;;;;22.60;80.40;;;20.36;83.04;99283.78;4970725;28;20276;-88
2021/08/06 14:08:59;;;;;;;;;;;22.70;81.50;;;20.41;81.66;99289.28;4972436;28;19936;-88
2021/08/06 14:11:26;;;;;;;;;;;22.70;80.20;;;20.44;82.43;99285.97;4971077;28;20032;-88
2021/08/06 14:13:53;;;;;;;;;;;22.80;80.40;;;20.43;82.81;99290.69;4971063;28;19922;-89
2021/08/06 14:16:20;;;;;;;;;;;22.90;80.60;;;20.44;81.65;99288.72;4970356;28;20013;-89
2021/08/06 14:18:48;;;;;;;;;;;22.80;79.20;;;20.44;79.99;99297.03;4962357;28;19926;-89
2021/08/06 14:21:16;;;;;;;;;;;22.80;79.70;;;20.47;79.72;99296.47;4935557;29;20561;-88
2021/08/06 14:23:43;;;;;;;;;;;22.80;78.80;;;20.49;81.21;99283.19;4952883;29;20033;-88
2021/08/06 14:26:12;;;;;;;;;;;22.80;79.80;;;20.45;79.98;99287.63;4934779;29;20391;-87
2021/08/06 14:28:39;;;;;;;;;;;22.80;79.30;;;20.44;81.04;99297.03;4951466;29;20006;-89
2021/08/06 14:31:08;;;;;;;;;;;22.80;79.80;;;20.44;83.36;99291.50;4952723;29;19927;-88
2021/08/06 14:33:38;;;;;;;;;;;22.80;80.50;;;20.47;82.84;99290.94;4951306;29;19961;-88
2021/08/06 14:36:08;;;;;;;;;;;22.90;80.00;;;20.47;81.33;99288.19;4951857;29;19933;-88
2021/08/06 14:38:35;;;;;;;;;;;22.90;79.30;;;20.46;78.41;99287.34;4952399;29;19928;-88
2021/08/06 14:41:03;;;;;;;;;;;22.90;78.30;;;20.46;78.82;99294.81;4952230;29;19930;-88
2021/08/06 14:43:30;;;;;;;;;;;22.80;78.60;;;20.42;78.38;99300.06;4935379;29;19922;-89
2021/08/06 14:45:57;;;;;;;;;;;22.80;78.30;;;20.39;76.02;99316.38;4934681;29;20450;-89
2021/08/06 14:48:24;;;;;;;;;;;22.70;76.40;;;20.38;75.55;99309.19;4952333;28;19981;-89
2021/08/06 14:50:51;;;;;;;;;;;22.70;75.70;;;20.38;75.58;99311.97;4934334;29;19933;-88
2021/08/06 14:53:20;;;;;;;;;;;22.70;76.60;;;20.38;77.28;99310.03;4952271;29;20032;-88
2021/08/06 14:55:47;;;;;;;;;;;22.70;77.70;;;20.41;75.51;99303.94;4952149;29;20025;-87
2021/08/06 14:58:14;;;;;;;;;;;22.70;75.50;;;20.45;78.64;99306.97;4934395;29;20438;-88
2021/08/06 15:00:41;;;;;;;;;;;22.80;77.00;;;20.42;77.42;99304.78;4952178;29;20403;-89
2021/08/06 15:03:08;;;;;;;;;;;22.80;77.30;;;20.41;76.96;99306.72;4952198;29;19950;-88
2021/08/06 15:05:38;;;;;;;;;;;22.80;77.00;;;20.43;78.22;99311.97;4952157;29;19977;-88
2021/08/06 15:08:07;;;;;;;;;;;22.80;77.30;;;20.42;76.74;99305.59;4950287;29;20340;-88
2021/08/06 15:10:37;;;;;;;;;;;22.80;76.40;;;20.41;76.78;99315.00;4934704;29;19930;-89
2021/08/06 15:13:04;;;;;;;;;;;22.70;77.00;;;20.42;77.62;99304.78;4950631;29;19931;-89
2021/08/06 15:15:31;;;;;;;;;;;22.70;77.00;;;20.41;77.36;99309.47;4934855;29;19930;-89
2021/08/06 15:17:58;;;;;;;;;;;22.70;77.10;;;20.41;77.91;99317.75;4954795;28;19965;-88
2021/08/06 15:20:25;;;;;;;;;;;22.70;77.50;;;20.40;78.31;99315.28;4971163;28;20367;-89
2021/08/06 15:22:53;;;;;;;;;;;22.70;77.20;;;20.41;77.38;99319.69;4986393;28;20371;-88
2021/08/06 15:25:20;;;;;;;;;;;22.70;77.00;;;20.42;76.61;99322.16;4971145;28;20443;-87
2021/08/06 15:27:49;;;;;;;;;;;22.80;76.40;;;20.43;77.13;99309.19;4970458;28;19954;-89
2021/08/06 15:30:16;;;;;;;;;;;22.80;76.50;;;20.43;78.25;99311.97;4971136;28;20024;-88
2021/08/06 15:32:44;;;;;;;;;;;22.90;77.20;;;20.45;77.50;99315.28;4971154;28;20012;-89
2021/08/06 15:35:11;;;;;;;;;;;22.80;76.80;;;20.43;76.01;99309.19;4969766;28;19926;-89
2021/08/06 15:37:39;;;;;;;;;;;22.70;76.70;;;20.44;75.80;99313.59;4970191;28;19954;-88
2021/08/06 15:40:08;;;;;;;;;;;22.70;76.30;;;20.44;76.28;99324.66;4970913;28;19969;-88
2021/08/06 15:42:35;;;;;;;;;;;22.60;76.90;;;20.44;76.74;99321.91;4970989;28;19930;-88
2021/08/06 15:45:04;;;;;;;;;;;22.60;77.00;;;20.43;76.77;99328.53;4971039;28;20417;-88
2021/08/06 15:47:31;;;;;;;;;;;22.60;77.10;;;20.42;77.98;99329.63;4970103;28;19992;-89
2021/08/06 15:49:58;;;;;;;;;;;22.60;78.40;;;20.38;78.74;99325.78;4969702;28;20021;-88
2021/08/06 15:52:25;;;;;;;;;;;22.50;78.90;;;20.38;78.96;99326.59;4969398;28;19977;-89
2021/08/06 15:54:52;;;;;;;;;;;22.50;79.00;;;20.38;78.13;99342.38;4969611;28;19933;-89
2021/08/06 15:57:19;;;;;;;;;;;22.40;78.30;;;20.36;77.98;99336.28;4970123;28;19965;-89
2021/08/06 15:59:47;;;;;;;;;;;22.40;79.00;;;20.35;77.63;99331.84;4969306;28;20012;-88
2021/08/06 16:02:16;;;;;;;;;;;22.50;78.30;;;20.35;76.13;99343.72;4974135;28;19933;-88
2021/08/06 16:04:43;;;;;;;;;;;22.50;77.20;;;20.33;77.45;99334.06;4974844;28;19926;-89
2021/08/06 16:07:11;;;;;;;;;;;22.50;78.10;;;20.33;76.57;99334.88;4989200;28;19973;-89
2021/08/06 16:09:38;;;;;;;;;;;22.40;77.70;;;20.31;77.13;99332.44;4973306;28;19985;-89
2021/08/06 16:12:06;;;;;;;;;;;22.40;78.50;;;20.30;77.71;99341.81;4974700;28;19973;-89
2021/08/06 16:14:33;;;;;;;;;;;22.30;78.50;;;20.30;78.48;99347.34;4974378;28;20670;-90
2021/08/06 16:17:00;;;;;;;;;;;22.30;80.00;;;20.29;78.09;99344.84;4973684;28;19984;-88
2021/08/06 16:19:28;;;;;;;;;;;22.20;78.90;;;20.27;77.95;99342.34;4989318;28;20402;-89
2021/08/06 16:21:55;;;;;;;;;;;22.20;79.40;;;20.25;75.58;99341.81;4974422;28;19933;-88
2021/08/06 16:24:22;;;;;;;;;;;22.10;79.10;;;20.24;75.96;99340.16;4974571;28;19976;-88
2021/08/06 16:26:50;;;;;;;;;;;22.00;78.80;;;20.23;76.31;99341.25;4972200;28;19921;-89
2021/08/06 16:29:17;;;;;;;;;;;22.00;79.40;;;20.21;76.81;99337.94;4972958;28;20439;-89
2021/08/06 16:31:44;;;;;;;;;;;22.00;79.10;;;20.21;76.07;99332.41;4989156;28;20366;-90
2021/08/06 16:34:13;;;;;;;;;;;22.00;77.50;;;20.20;75.34;99332.69;4974218;28;20471;-91
2021/08/06 16:36:41;;;;;;;;;;;22.00;78.30;;;20.20;75.40;99330.78;4972313;28;19932;-89
2021/08/06 16:39:09;;;;;;;;;;;22.00;78.00;;;20.23;75.73;99332.97;4974020;28;19926;-89
2021/08/06 16:41:36;;;;;;;;;;;22.10;77.70;;;20.25;77.00;99324.41;4972620;28;20393;-88
2021/08/06 16:44:03;;;;;;;;;;;22.20;77.90;;;20.26;76.13;99323.31;4973872;28;20088;-88
2021/08/06 16:46:30;;;;;;;;;;;22.30;78.10;;;20.27;74.80;99325.78;4973264;28;19980;-89
2021/08/06 16:48:57;;;;;;;;;;;22.30;76.80;;;20.26;75.19;99328.84;4973963;28;19961;-88
2021/08/06 16:51:24;;;;;;;;;;;22.30;76.90;;;20.23;73.42;99329.38;4974116;28;19921;-88
2021/08/06 16:53:55;;;;;;;;;;;22.30;76.30;;;20.21;74.35;99332.41;4972648;28;19922;-88
2021/08/06 16:56:23;;;;;;;;;;;22.20;76.70;;;20.21;74.40;99335.19;4973340;28;20284;-89
2021/08/06 16:58:50;;;;;;;;;;;22.10;77.10;;;20.20;75.70;99341.84;4988726;28;19922;-89
2021/08/06 17:01:17;;;;;;;;;;;22.10;78.20;;;20.19;76.56;99334.63;4972389;28;20020;-89
2021/08/06 17:03:46;;;;;;;;;;;22.00;78.90;;;20.20;77.67;99329.94;4972531;28;19925;-89
2021/08/06 17:06:14;;;;;;;;;;;21.90;80.00;;;20.16;78.31;99346.22;4987923;28;20383;-90
2021/08/06 17:08:41;;;;;;;;;;;21.90;80.70;;;20.15;78.02;99336.31;4972056;28;20028;-87
2021/08/06 17:11:09;;;;;;;;;;;21.80;80.20;;;20.15;78.45;99341.00;4988428;28;20440;-88
2021/08/06 17:13:37;;;;;;;;;;;21.70;81.10;;;20.13;78.93;99333.00;4972362;28;20024;-89
2021/08/06 17:16:05;;;;;;;;;;;21.60;81.60;;;20.11;78.35;99329.69;4972972;28;19961;-88
2021/08/06 17:18:32;;;;;;;;;;;21.60;81.30;;;20.10;78.61;99341.81;4973173;28;19972;-89
2021/08/06 17:20:59;;;;;;;;;;;21.60;81.60;;;20.09;78.91;99338.22;4972021;28;20114;-88
2021/08/06 17:23:26;;;;;;;;;;;21.60;81.80;;;20.09;79.28;99342.94;4973316;28;20000;-88
2021/08/06 17:25:53;;;;;;;;;;;21.60;82.20;;;20.07;79.90;99342.38;4972846;28;19965;-89
2021/08/06 17:28:23;;;;;;;;;;;21.60;82.40;;;20.04;78.45;99343.75;4973224;28;20037;-89
2021/08/06 17:30:50;;;;;;;;;;;21.60;82.20;;;20.04;79.46;99348.44;4973135;28;19922;-88
2021/08/06 17:33:17;;;;;;;;;;;21.50;82.60;;;20.01;78.07;99354.53;4973234;28;19985;-88